Time;durP1;ratioP1;P1;durP2;ratioP2;P2;SDS_P1;SDS_P2;PMS_P1;PMS_P2;Temp;Humidity;BMP_temperature;BMP_pressure;BME280_temperature;BME280_humidity;BME280_pressure;Samples;Min_cycle;Max_cycle;Signal;HPM_P1;HPM_P2
2022/04/08 00:00:24;;;;;;;5.50;1.33;;;6.10;99.90;;;;;;5033857;28;20241;-59
2022/04/08 00:02:52;;;;;;;4.23;1.30;;;6.10;1.00;;;;;;5033710;28;20255;-60
2022/04/08 00:05:20;;;;;;;3.27;1.83;;;6.10;99.90;;;;;;5033591;28;20208;-61
2022/04/08 00:07:47;;;;;;;6.93;1.77;;;6.00;99.90;;;;;;5033216;28;20226;-61
2022/04/08 00:10:13;;;;;;;3.03;1.20;;;6.00;99.90;;;;;;5033367;28;20239;-58
2022/04/08 00:12:40;;;;;;;5.93;1.80;;;6.00;99.90;;;;;;5033461;28;20304;-61
2022/04/08 00:15:08;;;;;;;3.43;1.33;;;5.90;99.90;;;;;;5033509;28;20208;-60
2022/04/08 00:17:35;;;;;;;6.70;2.40;;;5.90;99.90;;;;;;5032994;28;20246;-59
2022/04/08 00:20:02;;;;;;;4.33;1.77;;;5.90;99.90;;;;;;5033135;28;20258;-59
2022/04/08 00:22:31;;;;;;;9.33;1.90;;;5.90;99.90;;;;;;5033322;28;20208;-61
2022/04/08 00:24:59;;;;;;;4.53;1.70;;;5.90;99.90;;;;;;5033052;28;20811;-61
2022/04/08 00:27:25;;;;;;;4.97;1.97;;;5.90;1.00;;;;;;5032862;28;20595;-61
2022/04/08 00:29:52;;;;;;;4.00;2.20;;;5.90;1.00;;;;;;5033361;28;20215;-60
2022/04/08 00:32:18;;;;;;;5.70;1.63;;;5.90;1.00;;;;;;5032841;28;20216;-59
2022/04/08 00:34:45;;;;;;;4.43;1.90;;;5.90;1.00;;;;;;5033018;28;20207;-58
2022/04/08 00:37:13;;;;;;;6.40;2.43;;;5.70;1.00;;;;;;5032039;28;20229;-59
2022/04/08 00:39:41;;;;;;;4.87;2.30;;;5.70;1.00;;;;;;5032838;28;20643;-58
2022/04/08 00:42:08;;;;;;;5.10;2.10;;;5.60;1.00;;;;;;5032920;28;20203;-60
2022/04/08 00:44:34;;;;;;;4.47;1.90;;;5.40;14.20;;;;;;5032649;28;20242;-58
2022/04/08 00:47:01;;;;;;;2.23;1.80;;;5.30;42.80;;;;;;5031678;28;20712;-58
2022/04/08 00:49:28;;;;;;;4.23;2.53;;;5.20;70.20;;;;;;5032686;28;20444;-59
2022/04/08 00:51:54;;;;;;;2.97;2.23;;;5.20;84.00;;;;;;5032919;28;20256;-59
2022/04/08 00:54:22;;;;;;;6.73;3.40;;;5.10;92.50;;;;;;5032643;28;20503;-59
2022/04/08 00:56:50;;;;;;;7.80;3.10;;;5.00;99.90;;;;;;5032655;28;20515;-59
2022/04/08 00:59:17;;;;;;;6.47;3.20;;;5.10;99.90;;;;;;5032143;28;20621;-60
2022/04/08 01:01:46;;;;;;;7.27;3.80;;;5.10;99.90;;;;;;5032520;28;20542;-59
2022/04/08 01:04:13;;;;;;;7.07;2.87;;;5.10;99.90;;;;;;5032299;28;20956;-58
2022/04/08 01:06:40;;;;;;;8.23;3.30;;;5.10;99.90;;;;;;5032169;28;20579;-59
2022/04/08 01:09:07;;;;;;;9.70;3.57;;;5.10;99.90;;;;;;5032790;28;20515;-58
2022/04/08 01:11:34;;;;;;;12.70;3.80;;;5.20;99.90;;;;;;5032247;28;20446;-59
2022/04/08 01:14:09;;;;;;;8.20;2.90;;;5.20;99.90;;;;;;5032649;28;20681;-59
2022/04/08 01:16:36;;;;;;;7.47;2.67;;;5.20;99.90;;;;;;5031966;28;20476;-59
2022/04/08 01:19:03;;;;;;;6.97;2.63;;;5.10;99.90;;;;;;5032411;28;20454;-59
2022/04/08 01:21:31;;;;;;;5.77;2.77;;;5.20;99.90;;;;;;5031921;28;20285;-59
2022/04/08 01:23:59;;;;;;;7.43;2.87;;;5.20;99.90;;;;;;5032449;28;20453;-58
2022/04/08 01:26:28;;;;;;;9.13;3.13;;;5.20;99.90;;;;;;5031941;28;20226;-59
2022/04/08 01:28:56;;;;;;;6.87;2.83;;;5.20;99.90;;;;;;5032255;28;20256;-59
2022/04/08 01:31:24;;;;;;;9.13;3.07;;;5.20;99.90;;;;;;5032414;28;20203;-57
2022/04/08 01:33:51;;;;;;;10.30;3.07;;;5.20;99.90;;;;;;5031500;28;20455;-58
2022/04/08 01:36:18;;;;;;;10.30;3.13;;;5.20;99.90;;;;;;5031624;28;20488;-58
2022/04/08 01:38:44;;;;;;;6.27;2.77;;;5.20;99.90;;;;;;5018975;28;20854;-59
2022/04/08 01:41:11;;;;;;;5.63;2.40;;;5.20;99.90;;;;;;5012023;28;20560;-56
2022/04/08 01:43:39;;;;;;;6.03;2.77;;;5.10;99.90;;;;;;5012280;28;20463;-58
2022/04/08 01:46:05;;;;;;;3.27;2.27;;;5.10;99.90;;;;;;5012063;28;20450;-58
2022/04/08 01:48:32;;;;;;;7.83;2.23;;;5.20;99.90;;;;;;5011886;28;20457;-59
2022/04/08 01:50:59;;;;;;;8.87;2.20;;;5.20;99.90;;;;;;5012176;28;20477;-57
2022/04/08 01:53:26;;;;;;;8.93;2.60;;;5.20;90.90;;;;;;5012091;28;20454;-57
2022/04/08 01:55:52;;;;;;;2.37;1.73;;;5.10;68.20;;;;;;5011908;28;20512;-60
2022/04/08 01:58:19;;;;;;;7.67;1.50;;;5.10;40.40;;;;;;5012269;28;20469;-56
2022/04/08 02:00:47;;;;;;;5.53;2.10;;;5.20;1.00;;;;;;5011648;28;20991;-56
2022/04/08 02:03:15;;;;;;;6.27;1.57;;;5.10;1.00;;;;;;5011784;28;20512;-59
2022/04/08 02:05:42;;;;;;;3.60;1.87;;;5.20;1.00;;;;;;5012201;28;20301;-59
2022/04/08 02:08:08;;;;;;;8.23;1.53;;;5.20;1.00;;;;;;5011930;28;20227;-58
2022/04/08 02:10:35;;;;;;;7.23;1.70;;;5.10;1.00;;;;;;5013989;28;20203;-58
2022/04/08 02:13:02;;;;;;;9.53;1.90;;;5.10;1.00;;;;;;5016029;28;20516;-58
2022/04/08 02:15:32;;;;;;;8.43;1.53;;;5.10;1.00;;;;;;5015801;28;20233;-58
2022/04/08 02:18:01;;;;;;;9.93;1.60;;;5.10;1.00;;;;;;5014965;28;20565;-60
2022/04/08 02:20:30;;;;;;;5.23;1.50;;;5.00;1.00;;;;;;5015859;28;20519;-59
2022/04/08 02:22:57;;;;;;;7.13;1.97;;;4.90;1.00;;;;;;5015000;28;20515;-58
2022/04/08 02:25:25;;;;;;;9.37;2.27;;;4.90;1.00;;;;;;5015513;28;20457;-59
2022/04/08 02:27:52;;;;;;;9.37;1.97;;;4.90;1.00;;;;;;5015218;28;20548;-58
2022/04/08 02:30:19;;;;;;;7.23;1.73;;;4.90;1.00;;;;;;5015041;28;20508;-56
2022/04/08 02:32:46;;;;;;;5.40;1.33;;;4.90;1.00;;;;;;5015272;28;20454;-59
2022/04/08 02:35:14;;;;;;;9.33;1.57;;;4.90;1.00;;;;;;5014902;28;21035;-53
2022/04/08 02:37:40;;;;;;;7.53;2.20;;;4.90;1.00;;;;;;5014534;28;20887;-58
2022/04/08 02:40:08;;;;;;;4.27;1.77;;;4.90;1.00;;;;;;5014968;28;20937;-59
2022/04/08 02:42:35;;;;;;;8.33;1.70;;;4.90;1.00;;;;;;5015205;28;20485;-58
2022/04/08 02:45:02;;;;;;;5.27;1.83;;;4.90;1.00;;;;;;5015051;28;20446;-60
2022/04/08 02:47:28;;;;;;;4.13;1.40;;;4.90;1.00;;;;;;5014969;28;20520;-59
2022/04/08 02:49:55;;;;;;;6.60;2.53;;;4.90;1.00;;;;;;5015101;28;20453;-59
2022/04/08 02:52:23;;;;;;;5.73;2.53;;;5.00;1.00;;;;;;5014927;28;20450;-59
2022/04/08 02:54:49;;;;;;;9.77;3.03;;;4.90;1.00;;;;;;5015062;28;20458;-59
2022/04/08 02:57:16;;;;;;;7.57;3.10;;;4.90;1.00;;;;;;5014306;28;20466;-58
2022/04/08 02:59:43;;;;;;;7.93;2.87;;;4.90;1.00;;;;;;5015279;28;20211;-59
2022/04/08 03:02:09;;;;;;;6.67;3.37;;;5.00;1.00;;;;;;5014559;28;21007;-59
2022/04/08 03:04:36;;;;;;;8.83;3.43;;;5.00;1.80;;;;;;5015038;28;20457;-60
2022/04/08 03:07:03;;;;;;;8.07;3.00;;;5.00;17.70;;;;;;5014499;28;20477;-60
2022/04/08 03:09:31;;;;;;;8.43;3.20;;;5.00;26.20;;;;;;5014563;28;20729;-59
2022/04/08 03:11:58;;;;;;;6.87;2.33;;;5.00;27.60;;;;;;5014908;28;20273;-59
2022/04/08 03:14:25;;;;;;;18.30;2.77;;;5.00;28.30;;;;;;5014760;28;20453;-60
2022/04/08 03:16:52;;;;;;;6.87;2.30;;;5.00;20.00;;;;;;5014286;28;20497;-60
2022/04/08 03:19:18;;;;;;;9.03;2.37;;;5.00;15.40;;;;;;5014789;28;20454;-59
2022/04/08 03:21:45;;;;;;;5.47;2.20;;;5.00;20.70;;;;;;5013934;28;21000;-59
2022/04/08 03:24:12;;;;;;;9.57;2.90;;;5.00;26.30;;;;;;5014407;28;20470;-58
2022/04/08 03:26:40;;;;;;;5.20;2.60;;;5.00;30.00;;;;;;5014192;28;21000;-59
2022/04/08 03:29:07;;;;;;;6.17;2.80;;;5.00;20.50;;;;;;5014984;28;20457;-59
2022/04/08 03:31:33;;;;;;;5.87;2.67;;;4.90;19.40;;;;;;5014295;28;20854;-59
2022/04/08 03:34:00;;;;;;;13.27;2.60;;;4.90;14.70;;;;;;5014362;28;20459;-59
2022/04/08 03:36:27;;;;;;;3.93;2.43;;;4.90;13.20;;;;;;5013283;28;20482;-60
2022/04/08 03:38:53;;;;;;;8.77;3.43;;;5.00;2.40;;;;;;5013726;28;20504;-59
2022/04/08 03:41:20;;;;;;;10.83;3.00;;;5.00;2.50;;;;;;5014223;28;20626;-59
2022/04/08 03:43:48;;;;;;;7.00;2.70;;;5.00;2.40;;;;;;5014426;28;20203;-59
2022/04/08 03:46:16;;;;;;;10.87;2.67;;;5.00;4.50;;;;;;5013733;28;20454;-59
2022/04/08 03:48:43;;;;;;;8.27;3.53;;;4.90;6.00;;;;;;5013787;28;20465;-60
2022/04/08 03:51:10;;;;;;;7.80;3.10;;;4.90;17.40;;;;;;5014358;28;20290;-59
2022/04/08 03:53:37;;;;;;;8.90;3.10;;;4.90;19.40;;;;;;5013554;28;20508;-60
2022/04/08 03:56:05;;;;;;;10.87;2.70;;;4.90;22.80;;;;;;5013441;28;20199;-59
2022/04/08 03:58:32;;;;;;;9.17;2.90;;;4.90;22.60;;;;;;5013649;28;20450;-60
2022/04/08 04:01:00;;;;;;;5.83;2.33;;;4.90;12.60;;;;;;5013824;28;20529;-59
2022/04/08 04:03:27;;;;;;;7.50;2.37;;;4.80;1.40;;;;;;5013176;28;20480;-59
2022/04/08 04:05:54;;;;;;;9.70;2.00;;;4.80;1.00;;;;;;5013297;28;20961;-61
2022/04/08 04:08:20;;;;;;;4.23;1.83;;;4.70;1.00;;;;;;5013843;28;20525;-60
2022/04/08 04:10:47;;;;;;;4.03;1.73;;;4.60;1.00;;;;;;5013470;28;20489;-60
2022/04/08 04:13:14;;;;;;;14.63;2.00;;;4.60;1.00;;;;;;5013380;28;20457;-60
2022/04/08 04:15:41;;;;;;;6.80;2.30;;;4.60;1.00;;;;;;5013426;28;20454;-60
2022/04/08 04:18:09;;;;;;;8.90;2.10;;;4.60;1.00;;;;;;5012681;28;20899;-60
2022/04/08 04:20:36;;;;;;;9.07;2.17;;;4.50;1.00;;;;;;5013306;28;20896;-61
2022/04/08 04:23:03;;;;;;;2.30;1.30;;;4.60;1.00;;;;;;5013549;28;20489;-60
2022/04/08 04:25:29;;;;;;;7.47;2.63;;;4.60;1.00;;;;;;5013560;28;20488;-61
2022/04/08 04:27:56;;;;;;;5.60;2.10;;;4.60;1.00;;;;;;5012834;28;20478;-60
2022/04/08 04:30:26;;;;;;;5.33;1.47;;;4.60;1.00;;;;;;5013013;28;20454;-60
2022/04/08 04:32:53;;;;;;;10.80;2.40;;;4.50;1.00;;;;;;5011921;28;20500;-58
2022/04/08 04:35:22;;;;;;;7.43;1.80;;;4.50;1.00;;;;;;5013427;28;20458;-59
2022/04/08 04:37:48;;;;;;;7.63;1.90;;;4.50;1.00;;;;;;5012591;28;20980;-59
2022/04/08 04:40:15;;;;;;;5.57;1.70;;;4.40;1.00;;;;;;5013032;28;20449;-60
2022/04/08 04:42:42;;;;;;;13.43;2.33;;;4.30;1.00;;;;;;5012788;28;20544;-59
2022/04/08 04:45:10;;;;;;;8.90;2.80;;;4.20;1.00;;;;;;5012859;28;20864;-59
2022/04/08 04:47:38;;;;;;;13.40;2.40;;;4.20;1.00;;;;;;5012391;28;20984;-60
2022/04/08 04:50:06;;;;;;;9.20;2.40;;;4.20;1.00;;;;;;5012804;28;20500;-60
2022/04/08 04:52:34;;;;;;;7.33;2.43;;;4.20;1.00;;;;;;5013143;28;20894;-60
2022/04/08 04:55:00;;;;;;;5.90;2.43;;;4.20;1.00;;;;;;5012503;28;20450;-60
2022/04/08 04:57:27;;;;;;;8.60;2.67;;;4.20;1.00;;;;;;5012127;28;20564;-60
2022/04/08 04:59:54;;;;;;;7.23;2.70;;;4.20;1.00;;;;;;5012144;28;20460;-60
2022/04/08 05:02:20;;;;;;;6.27;2.77;;;4.20;14.30;;;;;;5012669;28;20488;-60
2022/04/08 05:04:47;;;;;;;10.33;3.77;;;4.20;27.30;;;;;;5012667;28;20454;-60
2022/04/08 05:07:14;;;;;;;11.07;3.83;;;4.20;38.70;;;;;;5012150;28;20979;-60
2022/04/08 05:09:43;;;;;;;10.70;4.03;;;4.20;55.10;;;;;;5012769;28;20454;-60
2022/04/08 05:12:10;;;;;;;11.50;3.87;;;4.20;65.60;;;;;;5012786;28;20453;-60
2022/04/08 05:14:37;;;;;;;9.87;3.37;;;4.30;61.00;;;;;;5012692;28;20449;-59
2022/04/08 05:17:04;;;;;;;9.60;3.07;;;4.20;45.80;;;;;;5012237;28;20561;-59
2022/04/08 05:19:31;;;;;;;6.47;2.70;;;4.30;26.40;;;;;;5012587;28;20458;-58
2022/04/08 05:21:58;;;;;;;6.30;2.20;;;4.20;13.50;;;;;;5012324;28;20551;-60
2022/04/08 05:24:24;;;;;;;4.63;1.93;;;4.20;1.00;;;;;;5012204;28;20545;-60
2022/04/08 05:26:52;;;;;;;4.13;2.20;;;4.20;1.00;;;;;;5011673;28;20477;-60
2022/04/08 05:29:20;;;;;;;7.83;2.60;;;4.30;1.00;;;;;;5012367;28;20462;-59
2022/04/08 05:31:47;;;;;;;3.30;2.07;;;4.30;1.00;;;;;;5012428;28;20535;-59
2022/04/08 05:34:13;;;;;;;8.13;2.70;;;4.40;1.00;;;;;;5012101;28;20450;-60
2022/04/08 05:36:40;;;;;;;7.20;2.47;;;4.30;1.00;;;;;;5012131;28;20512;-60
2022/04/08 05:39:07;;;;;;;9.43;3.60;;;4.30;1.00;;;;;;5012173;28;20508;-59
2022/04/08 05:41:33;;;;;;;9.03;3.00;;;4.30;1.00;;;;;;5012498;28;20454;-60
2022/04/08 05:44:01;;;;;;;11.93;3.90;;;4.30;1.00;;;;;;5012129;28;20454;-60
2022/04/08 05:46:28;;;;;;;11.40;4.23;;;4.20;1.00;;;;;;5011418;28;20474;-59
2022/04/08 05:48:54;;;;;;;9.03;3.53;;;4.20;1.00;;;;;;5011911;28;20458;-57
2022/04/08 05:51:21;;;;;;;11.10;4.67;;;4.20;1.00;;;;;;5011657;28;20940;-56
2022/04/08 05:53:48;;;;;;;10.07;4.17;;;4.30;1.00;;;;;;5011840;28;20450;-59
2022/04/08 05:56:14;;;;;;;9.93;4.67;;;4.30;1.00;;;;;;5011157;28;20450;-59
2022/04/08 05:58:41;;;;;;;8.30;4.17;;;4.30;1.70;;;;;;5012270;28;20460;-60
2022/04/08 06:01:10;;;;;;;8.60;4.30;;;4.30;19.20;;;;;;5012326;28;20508;-59
2022/04/08 06:03:37;;;;;;;11.87;4.80;;;4.30;22.60;;;;;;5011787;28;20490;-59
2022/04/08 06:06:04;;;;;;;13.50;5.00;;;4.40;28.20;;;;;;5011538;28;20481;-59
2022/04/08 06:08:31;;;;;;;11.03;4.90;;;4.50;33.00;;;;;;5011562;28;20450;-60
2022/04/08 06:10:58;;;;;;;10.53;4.77;;;4.50;36.60;;;;;;5011089;28;20814;-59
2022/04/08 06:13:26;;;;;;;14.80;5.13;;;4.60;36.50;;;;;;5011712;28;20446;-59
2022/04/08 06:15:52;;;;;;;16.83;5.23;;;4.60;27.10;;;;;;5011697;28;20539;-61
2022/04/08 06:18:20;;;;;;;10.83;4.80;;;4.70;21.70;;;;;;5011309;28;20486;-58
2022/04/08 06:20:48;;;;;;;10.53;4.53;;;4.80;14.00;;;;;;5011501;28;20516;-60
2022/04/08 06:23:15;;;;;;;7.97;4.67;;;4.80;2.40;;;;;;5011374;28;20482;-61
2022/04/08 06:25:42;;;;;;;11.83;4.37;;;4.90;2.60;;;;;;5011342;28;20460;-59
2022/04/08 06:28:08;;;;;;;13.47;4.87;;;5.00;1.00;;;;;;5011162;28;20878;-60
2022/04/08 06:30:37;;;;;;;8.00;4.33;;;5.00;1.00;;;;;;5011491;28;20449;-60
2022/04/08 06:33:04;;;;;;;10.70;3.93;;;5.10;1.00;;;;;;5011585;28;20453;-61
2022/04/08 06:35:32;;;;;;;11.50;4.23;;;5.20;1.00;;;;;;5011092;28;20454;-61
2022/04/08 06:38:00;;;;;;;10.17;4.03;;;5.20;1.00;;;;;;5011069;28;20478;-61
2022/04/08 06:40:27;;;;;;;8.97;3.97;;;5.30;1.00;;;;;;5011830;28;20450;-60
2022/04/08 06:42:55;;;;;;;6.23;3.33;;;5.40;1.00;;;;;;5011703;28;20263;-61
2022/04/08 06:45:23;;;;;;;9.27;4.40;;;5.40;1.00;;;;;;5011700;28;20215;-60
2022/04/08 06:47:50;;;;;;;10.77;4.53;;;5.50;1.00;;;;;;5010582;28;20789;-60
2022/04/08 06:50:17;;;;;;;11.03;5.17;;;5.70;1.00;;;;;;5011089;28;20207;-61
2022/04/08 06:52:46;;;;;;;14.27;5.23;;;5.80;1.00;;;;;;5011564;28;20225;-61
2022/04/08 06:55:13;;;;;;;11.67;4.93;;;5.80;1.00;;;;;;5011646;28;20208;-60
2022/04/08 06:57:43;;;;;;;14.87;5.57;;;5.80;1.00;;;;;;5013903;28;20301;-61
2022/04/08 07:00:11;;;;;;;12.80;5.40;;;5.90;1.00;;;;;;5014763;28;20697;-60
2022/04/08 07:02:38;;;;;;;7.87;4.60;;;6.00;1.00;;;;;;5015448;28;20269;-61
2022/04/08 07:05:06;;;;;;;10.20;5.83;;;6.10;99.90;;;;;;5013054;28;20215;-62
2022/04/08 07:07:34;;;;;;;12.80;5.50;;;6.20;99.90;;;;;;5037769;28;20230;-60
2022/04/08 07:10:02;;;;;;;12.20;5.80;;;6.20;99.90;;;;;;5050106;28;20229;-60
2022/04/08 07:12:29;;;;;;;9.07;5.43;;;6.20;1.00;;;;;;5053690;28;20210;-58
2022/04/08 07:14:56;;;;;;;14.13;7.33;;;6.20;99.90;;;;;;5054219;28;20214;-56
2022/04/08 07:17:27;;;;;;;12.57;6.83;;;6.20;99.90;;;;;;5053303;28;20810;-58
2022/04/08 07:19:54;;;;;;;12.83;7.40;;;6.20;99.90;;;;;;5054130;28;20297;-58
2022/04/08 07:22:21;;;;;;;12.93;6.17;;;6.20;1.00;;;;;;5053862;28;20228;-59
2022/04/08 07:24:48;;;;;;;10.27;6.00;;;6.30;99.90;;;;;;5054201;28;20297;-59
2022/04/08 07:27:16;;;;;;;13.47;6.33;;;6.40;99.90;;;;;;5053126;28;20234;-59
2022/04/08 07:29:43;;;;;;;11.13;6.73;;;6.50;1.00;;;;;;5052866;28;20210;-59
2022/04/08 07:32:09;;;;;;;12.07;5.57;;;6.50;1.00;;;;;;5050790;28;20210;-58
2022/04/08 07:34:36;;;;;;;14.53;6.77;;;6.50;99.90;;;;;;5033628;28;20679;-60
2022/04/08 07:37:03;;;;;;;12.37;6.47;;;6.40;99.90;;;;;;5033413;28;20232;-60
2022/04/08 07:39:30;;;;;;;10.03;6.27;;;6.50;99.90;;;;;;5033344;28;20200;-61
2022/04/08 07:41:57;;;;;;;15.63;6.60;;;6.50;75.10;;;;;;5033759;28;20211;-60
2022/04/08 07:44:25;;;;;;;11.93;7.13;;;6.50;90.40;;;;;;5033541;28;20213;-61
2022/04/08 07:46:52;;;;;;;10.80;5.97;;;6.70;1.00;;;;;;5033389;28;20233;-61
2022/04/08 07:49:19;;;;;;;12.40;6.30;;;6.80;1.00;;;;;;5033043;28;20699;-61
2022/04/08 07:51:45;;;;;;;12.00;6.70;;;6.80;99.90;;;;;;5033451;28;20686;-60
2022/04/08 07:54:12;;;;;;;11.93;7.00;;;6.80;1.60;;;;;;5032356;28;20198;-57
2022/04/08 07:56:39;;;;;;;11.00;7.00;;;6.90;99.90;;;;;;5032672;28;20229;-59
2022/04/08 07:59:05;;;;;;;12.43;6.23;;;7.00;97.00;;;;;;5032648;28;20206;-58
2022/04/08 08:01:33;;;;;;;8.43;6.20;;;7.00;99.90;;;;;;5033364;28;20220;-57
2022/04/08 08:04:00;;;;;;;7.80;6.50;;;7.00;99.90;;;;;;5032785;28;20230;-59
2022/04/08 08:06:27;;;;;;;8.93;6.33;;;7.00;99.90;;;;;;5032732;28;20230;-60
2022/04/08 08:08:55;;;;;;;10.03;6.73;;;7.10;99.90;;;;;;5032874;28;20691;-59
2022/04/08 08:11:22;;;;;;;10.73;6.53;;;7.10;99.90;;;;;;5033607;28;20279;-59
2022/04/08 08:13:48;;;;;;;10.03;6.37;;;7.20;1.00;;;;;;5033514;28;20269;-59
2022/04/08 08:16:15;;;;;;;11.00;5.87;;;7.30;1.00;;;;;;5033143;28;20571;-60
2022/04/08 08:18:43;;;;;;;10.30;6.40;;;7.50;37.10;;;;;;5033165;28;20260;-60
2022/04/08 08:21:10;;;;;;;12.13;6.87;;;7.60;99.90;;;;;;5033302;28;20214;-59
2022/04/08 08:23:36;;;;;;;10.67;7.27;;;7.60;99.90;;;;;;5032974;28;20360;-60
2022/04/08 08:26:03;;;;;;;12.37;6.83;;;7.50;1.00;;;;;;5032590;28;20206;-59
2022/04/08 08:28:30;;;;;;;7.97;6.43;;;7.40;1.00;;;;;;5033486;28;20210;-60
2022/04/08 08:30:57;;;;;;;10.97;6.57;;;7.50;40.30;;;;;;5033233;28;20251;-59
2022/04/08 08:33:23;;;;;;;10.23;6.73;;;7.50;99.90;;;;;;5032972;28;20244;-60
2022/04/08 08:35:51;;;;;;;10.97;6.40;;;7.60;1.00;;;;;;5032707;28;20206;-61
2022/04/08 08:38:18;;;;;;;11.07;5.80;;;7.50;99.90;;;;;;5032594;28;20295;-60
2022/04/08 08:40:45;;;;;;;11.37;5.63;;;7.60;1.00;;;;;;5032776;28;20293;-61
2022/04/08 08:43:18;;;;;;;8.33;6.30;;;7.50;1.00;;;;;;5032966;28;20226;-60
2022/04/08 08:45:46;;;;;;;10.53;6.13;;;7.30;99.90;;;;;;5033022;28;20313;-59
2022/04/08 08:48:16;;;;;;;9.50;6.63;;;7.40;99.90;;;;;;5032499;28;20230;-60
2022/04/08 08:50:47;;;;;;;10.60;6.37;;;7.40;99.90;;;;;;5032699;28;20611;-60
2022/04/08 08:53:19;;;;;;;14.50;7.23;;;7.50;1.00;;;;;;5032714;28;20238;-60
2022/04/08 08:55:45;;;;;;;11.00;6.13;;;7.40;99.90;;;;;;5032617;28;20206;-60
2022/04/08 08:58:13;;;;;;;8.90;6.03;;;7.30;1.00;;;;;;5032263;28;20230;-61
2022/04/08 09:00:39;;;;;;;8.63;6.10;;;7.30;99.90;;;;;;5031837;28;20210;-60
2022/04/08 09:03:07;;;;;;;9.90;6.33;;;7.40;99.90;;;;;;5032492;28;20222;-60
2022/04/08 09:05:41;;;;;;;11.07;6.00;;;7.50;41.00;;;;;;5051559;28;21285;-58
2022/04/08 09:08:08;;;;;;;11.00;6.17;;;7.50;1.00;;;;;;5051886;28;20317;-59
2022/04/08 09:10:38;;;;;;;6.27;5.17;;;7.50;42.80;;;;;;5052278;28;20206;-60
2022/04/08 09:13:07;;;;;;;7.13;5.20;;;7.50;77.90;;;;;;5052120;28;20624;-60
2022/04/08 09:15:37;;;;;;;6.77;4.90;;;7.50;99.90;;;;;;5052291;28;20231;-59
2022/04/08 09:18:12;;;;;;;9.83;5.37;;;7.60;99.90;;;;;;5049495;28;20315;-61
2022/04/08 09:20:39;;;;;;;7.83;5.27;;;7.50;1.00;;;;;;5023057;28;20206;-60
2022/04/08 09:23:08;;;;;;;9.30;5.20;;;7.60;99.90;;;;;;5031674;28;20268;-60
2022/04/08 09:25:37;;;;;;;10.60;5.40;;;7.70;99.90;;;;;;5031410;28;20253;-57
2022/04/08 09:28:07;;;;;;;7.97;5.10;;;7.60;1.00;;;;;;5030610;28;20230;-59
2022/04/08 09:30:34;;;;;;;7.93;5.10;;;7.60;99.90;;;;;;5031114;28;20272;-59
2022/04/08 09:33:11;;;;;;;7.87;4.57;;;7.80;99.90;;;;;;5031610;28;20206;-57
2022/04/08 09:35:40;;;;;;;7.60;4.03;;;7.90;99.90;;;;;;5031226;28;20212;-60
2022/04/08 09:38:07;;;;;;;8.50;4.30;;;8.00;1.00;;;;;;5030636;28;20234;-61
2022/04/08 09:40:40;;;;;;;6.23;4.27;;;8.00;1.00;;;;;;5030710;28;20202;-61
2022/04/08 09:43:07;;;;;;;8.70;3.90;;;7.90;1.00;;;;;;5030972;28;20229;-60
2022/04/08 09:45:34;;;;;;;9.10;4.17;;;8.00;1.00;;;;;;5031189;28;20211;-61
2022/04/08 09:48:02;;;;;;;5.53;3.93;;;8.10;93.90;;;;;;5030568;28;20313;-56
2022/04/08 09:50:30;;;;;;;7.60;3.57;;;8.00;1.00;;;;;;5030680;28;20236;-54
2022/04/08 09:52:56;;;;;;;8.87;4.07;;;8.10;1.00;;;;;;5031347;28;20210;-58
2022/04/08 09:55:25;;;;;;;6.43;3.30;;;8.00;1.00;;;;;;5031134;28;20229;-60
2022/04/08 09:57:57;;;;;;;5.17;3.40;;;8.20;99.90;;;;;;5030315;28;20728;-60
2022/04/08 10:00:25;;;;;;;4.77;2.80;;;8.20;99.90;;;;;;5030858;28;20693;-60
2022/04/08 10:02:54;;;;;;;8.03;2.70;;;8.40;99.90;;;;;;5031136;28;20210;-60
2022/04/08 10:05:22;;;;;;;7.17;2.97;;;8.50;99.90;;;;;;5031035;28;20215;-59
2022/04/08 10:07:52;;;;;;;5.77;2.77;;;8.50;1.00;;;;;;5030654;28;20633;-62
2022/04/08 10:10:23;;;;;;;4.17;2.67;;;8.60;99.90;;;;;;5030524;28;20943;-61
2022/04/08 10:13:08;;;;;;;4.13;2.50;;;8.40;99.90;;;;;;5031115;28;20210;-63
2022/04/08 10:15:38;;;;;;;3.13;2.10;;;8.40;99.90;;;;;;5031125;28;20214;-62
2022/04/08 10:18:06;;;;;;;3.80;2.57;;;8.10;99.90;;;;;;5029782;28;20328;-58
2022/04/08 10:20:34;;;;;;;7.07;2.20;;;7.90;99.90;;;;;;5030784;28;20210;-57
2022/04/08 10:23:05;;;;;;;3.83;1.97;;;7.80;99.90;;;;;;5030417;28;20210;-59
2022/04/08 10:25:37;;;;;;;4.03;2.07;;;7.70;99.90;;;;;;5030855;28;20314;-58
2022/04/08 10:28:06;;;;;;;4.60;1.83;;;7.80;99.90;;;;;;5030237;28;20752;-61
2022/04/08 10:30:34;;;;;;;5.77;2.13;;;8.10;99.90;;;;;;5030734;28;20214;-58
2022/04/08 10:33:02;;;;;;;3.07;1.87;;;8.30;99.90;;;;;;5034471;28;20297;-56
2022/04/08 10:35:29;;;;;;;3.80;1.40;;;8.50;99.90;;;;;;5034039;28;20210;-53
2022/04/08 10:37:57;;;;;;;6.10;1.50;;;8.50;99.90;;;;;;5034219;28;20226;-57
2022/04/08 10:40:32;;;;;;;4.03;1.67;;;8.50;99.90;;;;;;5034007;28;20213;-57
2022/04/08 10:43:01;;;;;;;3.73;1.50;;;8.60;99.90;;;;;;5034309;28;20268;-59
2022/04/08 10:45:30;;;;;;;2.07;1.27;;;8.60;99.90;;;;;;5034425;28;20273;-59
2022/04/08 10:48:01;;;;;;;5.13;1.53;;;8.60;99.90;;;;;;5033456;28;20231;-57
2022/04/08 10:50:28;;;;;;;4.40;1.70;;;8.60;99.90;;;;;;5034439;28;20241;-59
2022/04/08 10:53:09;;;;;;;2.13;1.30;;;8.70;99.90;;;;;;5034222;28;20217;-57
2022/04/08 10:55:49;;;;;;;2.80;1.10;;;8.80;99.90;;;;;;5034028;28;20263;-59
2022/04/08 10:58:29;;;;;;;2.70;1.33;;;9.00;99.90;;;;;;5033548;28;20223;-55
2022/04/08 11:00:57;;;;;;;1.47;1.30;;;9.00;55.70;;;;;;5033783;28;20205;-57
2022/04/08 11:03:26;;;;;;;4.87;1.37;;;8.70;67.00;;;;;;5034047;28;20226;-55
2022/04/08 11:05:53;;;;;;;4.03;1.50;;;8.70;62.30;;;;;;5033272;28;20729;-52
2022/04/08 11:08:23;;;;;;;4.73;1.53;;;8.70;85.30;;;;;;5033753;28;20239;-55
2022/04/08 11:10:57;;;;;;;4.63;1.53;;;8.80;37.80;;;;;;5033553;28;20206;-59
2022/04/08 11:13:23;;;;;;;1.80;1.57;;;8.90;41.60;;;;;;5033729;28;20207;-61
2022/04/08 11:15:50;;;;;;;3.03;2.10;;;9.00;14.90;;;;;;5033375;28;20211;-61
2022/04/08 11:18:19;;;;;;;4.17;1.83;;;9.00;16.00;;;;;;5033263;28;20235;-61
2022/04/08 11:20:48;;;;;;;4.80;2.30;;;8.90;71.00;;;;;;5033119;28;20222;-62
2022/04/08 11:23:15;;;;;;;3.50;1.97;;;8.80;89.90;;;;;;5033632;28;20260;-60
2022/04/08 11:25:42;;;;;;;2.60;2.00;;;8.80;59.70;;;;;;5033726;28;20215;-61
2022/04/08 11:28:10;;;;;;;2.73;1.70;;;8.70;40.60;;;;;;5032870;28;20231;-60
2022/04/08 11:30:38;;;;;;;3.27;1.80;;;8.90;34.50;;;;;;5033476;28;20220;-60
2022/04/08 11:33:14;;;;;;;3.27;2.03;;;9.00;61.30;;;;;;5033486;28;20225;-58
2022/04/08 11:35:42;;;;;;;3.07;2.00;;;9.10;68.90;;;;;;5032730;28;20210;-59
2022/04/08 11:38:13;;;;;;;5.70;2.70;;;9.40;85.40;;;;;;5028742;28;20290;-57
2022/04/08 11:40:39;;;;;;;3.90;2.37;;;9.40;76.90;;;;;;5027689;28;20204;-58
2022/04/08 11:43:06;;;;;;;5.13;2.87;;;8.90;99.90;;;;;;5033509;28;20250;-57
2022/04/08 11:45:33;;;;;;;5.43;2.50;;;9.10;91.80;;;;;;5034154;28;20278;-60
2022/04/08 11:48:00;;;;;;;9.53;2.60;;;9.20;68.40;;;;;;5033423;28;20231;-58
2022/04/08 11:50:28;;;;;;;4.20;2.23;;;9.10;61.80;;;;;;5030524;28;20696;-59
2022/04/08 11:52:57;;;;;;;3.10;2.60;;;8.90;39.90;;;;;;5033726;28;20216;-60
2022/04/08 11:55:25;;;;;;;3.90;2.33;;;8.90;72.20;;;;;;5033223;28;20236;-58
2022/04/08 11:57:53;;;;;;;6.97;2.47;;;8.70;90.60;;;;;;5033551;28;20230;-59
2022/04/08 12:00:26;;;;;;;5.67;2.53;;;8.30;73.00;;;;;;5033477;28;20631;-61
2022/04/08 12:02:53;;;;;;;5.07;2.10;;;8.40;99.90;;;;;;5033639;28;20211;-61
2022/04/08 12:05:24;;;;;;;7.17;3.40;;;8.60;99.90;;;;;;5033706;28;20256;-62
2022/04/08 12:07:52;;;;;;;2.60;2.33;;;8.70;81.70;;;;;;5033134;28;20241;-63
2022/04/08 12:10:22;;;;;;;3.37;2.47;;;8.80;35.40;;;;;;5033603;28;20211;-62
2022/04/08 12:12:49;;;;;;;3.57;2.43;;;8.80;96.80;;;;;;5033464;28;20207;-62
2022/04/08 12:15:16;;;;;;;4.57;1.80;;;8.90;16.90;;;;;;5033223;28;20211;-62
2022/04/08 12:17:44;;;;;;;8.03;2.23;;;8.90;2.90;;;;;;5032661;28;20635;-62
2022/04/08 12:20:15;;;;;;;3.30;1.80;;;8.90;6.90;;;;;;5033309;28;20299;-60
2022/04/08 12:22:42;;;;;;;2.77;1.50;;;9.00;1.00;;;;;;5030708;28;20257;-60
2022/04/08 12:25:09;;;;;;;6.60;2.10;;;9.00;1.00;;;;;;5016806;28;20742;-58
2022/04/08 12:27:36;;;;;;;4.67;2.07;;;9.00;3.60;;;;;;5012961;28;20227;-56
2022/04/08 12:30:08;;;;;;;3.20;1.90;;;9.00;1.00;;;;;;5013034;28;20211;-57
2022/04/08 12:32:36;;;;;;;2.17;1.73;;;9.00;1.00;;;;;;5013109;28;20675;-60
2022/04/08 12:35:03;;;;;;;6.37;2.10;;;9.00;1.00;;;;;;5013410;28;20209;-62
2022/04/08 12:37:30;;;;;;;5.00;2.40;;;9.00;1.00;;;;;;5013167;28;20251;-60
2022/04/08 12:39:56;;;;;;;2.33;1.93;;;9.00;1.00;;;;;;5013268;28;20215;-61
2022/04/08 12:42:23;;;;;;;4.57;2.10;;;8.90;12.30;;;;;;5029001;28;20277;-61
2022/04/08 12:44:51;;;;;;;2.97;1.93;;;9.00;11.60;;;;;;5033069;28;20238;-60
2022/04/08 12:47:18;;;;;;;2.83;1.70;;;9.10;15.80;;;;;;5033013;28;20230;-63
2022/04/08 12:49:45;;;;;;;3.37;2.03;;;9.00;1.00;;;;;;5032532;28;20237;-60
2022/04/08 12:52:12;;;;;;;2.63;2.37;;;9.00;4.90;;;;;;5032613;28;20263;-60
2022/04/08 12:54:38;;;;;;;3.83;2.60;;;9.10;17.90;;;;;;5031957;28;20206;-61
2022/04/08 12:57:06;;;;;;;4.90;3.00;;;9.10;29.70;;;;;;5032115;28;20708;-61
2022/04/08 12:59:33;;;;;;;3.03;2.40;;;8.90;79.50;;;;;;5014989;28;20238;-59